Time;durP1;ratioP1;P1;durP2;ratioP2;P2;SDS_P1;SDS_P2;PMS_P1;PMS_P2;Temp;Humidity;BMP_temperature;BMP_pressure;BME280_temperature;BME280_humidity;BME280_pressure;Samples;Min_cycle;Max_cycle;Signal;HPM_P1;HPM_P2
2021/12/28 00:01:17;;;;;;;;;74.67;56.00;;;;;0.11;83.04;99099.53;6309436;20;2880487;-41
2021/12/28 00:03:47;;;;;;;;;69.00;54.00;;;;;0.32;80.60;99103.31;6311902;20;2866954;-46
2021/12/28 00:06:17;;;;;;;;;67.00;50.67;;;;;0.36;80.22;99105.81;6281992;20;2881498;-41
2021/12/28 00:08:47;;;;;;;;;69.00;53.00;;;;;0.05;80.20;99105.81;6313709;20;2886839;-41
2021/12/28 00:11:17;;;;;;;;;71.50;53.00;;;;;0.37;79.04;99106.66;6311557;20;2871085;-40
2021/12/28 00:13:46;;;;;;;;;66.00;50.00;;;;;0.12;80.17;99107.38;6282475;20;2864878;-41
2021/12/28 00:18:47;;;;;;;;;68.33;53.00;;;;;0.20;80.92;99110.66;6317927;20;2881553;-41
2021/12/28 00:21:18;;;;;;;;;70.67;54.33;;;;;0.05;80.86;99099.69;6314757;20;2879405;-41
2021/12/28 00:23:47;;;;;;;;;75.00;57.00;;;;;-0.01;81.48;99100.72;6317779;20;2876292;-40
2021/12/28 00:26:16;;;;;;;;;69.00;51.50;;;;;0.01;81.66;99108.63;6284549;20;2863779;-41
2021/12/28 00:28:47;;;;;;;;;68.00;52.00;;;;;0.04;81.72;99100.59;6285908;20;2863802;-41
2021/12/28 00:31:16;;;;;;;;;73.50;53.50;;;;;0.09;80.79;99102.19;6283587;20;2872123;-42
2021/12/28 00:33:45;;;;;;;;;74.00;54.50;;;;;0.16;81.24;99101.13;6284583;20;2881529;-42
2021/12/28 00:36:16;;;;;;;;;67.00;51.50;;;;;0.09;81.40;99101.34;6283133;20;2856527;-41
2021/12/28 00:38:44;;;;;;;;;70.00;55.00;;;;;-0.05;82.58;99101.75;6283976;20;2498305;-42
2021/12/28 00:41:13;;;;;;;;;66.50;51.50;;;;;-0.07;81.81;99098.25;6283494;20;2871207;-41
2021/12/28 00:43:42;;;;;;;;;54.00;45.00;;;;;-0.10;82.13;99096.56;6283112;20;2492987;-41
2021/12/28 00:46:11;;;;;;;;;66.00;51.50;;;;;-0.20;83.21;99105.66;6282946;20;2857558;-41
2021/12/28 00:48:41;;;;;;;;;65.50;51.00;;;;;-0.16;83.43;99106.41;6286256;20;2870062;-41
2021/12/28 00:51:10;;;;;;;;;73.67;54.67;;;;;-0.13;83.16;99106.31;6284113;20;3637834;-42
2021/12/28 00:53:40;;;;;;;;;65.67;51.33;;;;;-0.12;83.58;99111.56;6315537;20;2865936;-40
2021/12/28 00:56:10;;;;;;;;;69.67;55.67;;;;;-0.11;84.48;99107.16;6316712;20;2879532;-41
2021/12/28 00:58:39;;;;;;;;;70.67;53.67;;;;;-0.11;84.66;99109.81;6316322;20;2885796;-40
2021/12/28 01:01:09;;;;;;;;;76.67;54.33;;;;;-0.20;84.85;99115.34;6315229;20;2891987;-43
2021/12/28 01:03:38;;;;;;;;;70.00;54.00;;;;;-0.19;85.37;99123.19;6313949;20;2868180;-42
2021/12/28 01:06:08;;;;;;;;;73.67;55.67;;;;;-0.22;85.38;99118.88;6282434;20;2880566;-41
2021/12/28 01:08:38;;;;;;;;;70.67;53.00;;;;;-0.28;85.38;99116.41;6316502;20;3631497;-42
2021/12/28 01:11:07;;;;;;;;;73.00;55.50;;;;;-0.40;85.78;99119.34;6311820;20;2881502;-42
2021/12/28 01:13:37;;;;;;;;;69.00;53.67;;;;;-0.49;86.26;99123.13;6284009;20;2878424;-42
2021/12/28 01:16:13;;;;;;;;;72.50;56.00;;;;;-0.49;86.48;99115.19;6315268;20;2880474;-42
2021/12/28 01:18:43;;;;;;;;;66.00;52.00;;;;;-0.52;86.54;99122.34;6282993;20;2864859;-41
2021/12/28 01:21:11;;;;;;;;;22.00;13.00;;;;;-0.41;87.17;99116.78;6284583;20;2802336;-41
2021/12/28 01:23:40;;;;;;;;;72.33;53.33;;;;;-0.41;86.60;99117.63;6285857;20;2878401;-41
2021/12/28 01:26:10;;;;;;;;;81.00;56.00;;;;;-0.38;86.50;99109.66;6316191;20;3643996;-42
2021/12/28 01:28:40;;;;;;;;;80.33;58.67;;;;;-0.41;86.75;99107.09;6315346;20;2891013;-42
2021/12/28 01:31:09;;;;;;;;;70.00;56.50;;;;;-0.45;86.66;99105.44;6314381;20;2870476;-41
2021/12/28 01:33:37;;;;;;;;;75.50;58.50;;;;;-0.32;86.14;99098.91;6284012;20;2868995;-42
2021/12/28 01:36:06;;;;;;;;;73.50;57.00;;;;;-0.46;86.77;99087.88;6281719;20;2870058;-41
2021/12/28 01:38:36;;;;;;;;;79.33;60.67;;;;;-0.42;87.01;99089.56;6283413;20;3643383;-42
2021/12/28 01:41:09;;;;;;;;;82.67;57.33;;;;;-0.48;87.62;99090.56;6313101;20;3653388;-43
2021/12/28 01:43:40;;;;;;;;;80.67;61.00;;;;;-0.63;87.27;99079.53;6314544;20;3652305;-42
2021/12/28 01:46:10;;;;;;;;;81.00;59.00;;;;;-0.59;87.19;99086.47;6313389;20;2884616;-42
2021/12/28 01:48:42;;;;;;;;;73.50;57.00;;;;;-0.60;87.90;99085.63;6315262;20;2874218;-44
2021/12/28 01:51:18;;;;;;;;;77.33;58.33;;;;;-0.67;88.12;99086.69;6283178;20;2884669;-42
2021/12/28 01:53:56;;;;;;;;;74.00;60.00;;;;;-0.66;88.11;99077.84;6314746;20;2598199;-44
2021/12/28 01:56:37;;;;;;;;;76.50;61.50;;;;;-0.49;88.62;99085.34;6284283;20;2885727;-42
2021/12/28 01:59:10;;;;;;;;;83.33;60.00;;;;;-0.65;88.13;99079.59;6281376;20;3647139;-42
2021/12/28 02:01:40;;;;;;;;;78.33;59.00;;;;;-0.63;88.46;99079.53;6311609;20;3657530;-42
2021/12/28 02:04:27;;;;;;;;;78.00;58.33;;;;;-0.82;89.20;99066.84;6314470;20;3637769;-42
2021/12/28 02:06:58;;;;;;;;;81.50;59.00;;;;;-0.98;89.53;99071.63;6312424;20;2612760;-43
2021/12/28 02:09:27;;;;;;;;;82.33;64.00;;;;;-1.05;90.08;99066.53;6315783;20;2888852;-42
2021/12/28 02:11:56;;;;;;;;;78.00;61.50;;;;;-1.08;90.65;99066.63;6314294;20;2883606;-42
2021/12/28 02:14:26;;;;;;;;;79.67;61.67;;;;;-1.09;91.05;99070.19;6283148;20;2897349;-43
2021/12/28 02:16:55;;;;;;;;;79.00;63.00;;;;;-1.21;91.72;99079.22;6311725;20;2877553;-43
2021/12/28 02:19:24;;;;;;;;;86.33;62.67;;;;;-0.97;91.26;99080.41;6283011;20;3656540;-43
2021/12/28 02:21:54;;;;;;;;;77.00;55.00;;;;;-1.01;91.18;99081.38;6314453;20;2882681;-41
2021/12/28 02:24:23;;;;;;;;;75.00;59.00;;;;;-1.11;91.18;99078.09;6315758;20;2879618;-42
2021/12/28 02:26:52;;;;;;;;;86.33;64.67;;;;;-1.18;91.86;99080.03;6282844;20;2898242;-44
2021/12/28 02:29:22;;;;;;;;;86.33;64.00;;;;;-1.03;90.85;99072.66;6316019;20;3639951;-43
2021/12/28 02:31:55;;;;;;;;;88.33;64.33;;;;;-1.09;91.66;99064.91;6313836;20;3656610;-43
2021/12/28 02:34:26;;;;;;;;;88.00;63.33;;;;;-1.00;91.25;99064.66;6312994;20;3651310;-42
2021/12/28 02:36:56;;;;;;;;;77.50;59.50;;;;;-0.92;91.50;99068.00;6311784;20;2860763;-41
2021/12/28 02:39:25;;;;;;;;;82.50;61.00;;;;;-0.97;90.95;99059.34;6282715;20;2881505;-43
2021/12/28 02:41:54;;;;;;;;;78.67;57.33;;;;;-0.94;90.46;99059.25;6283051;20;2898307;-42
2021/12/28 02:44:24;;;;;;;;;85.00;63.00;;;;;-0.87;89.99;99052.91;6310347;20;3652424;-43
2021/12/28 02:46:54;;;;;;;;;82.67;60.67;;;;;-0.76;89.78;99053.53;6312958;20;3644142;-42
2021/12/28 02:49:23;;;;;;;;;77.00;59.00;;;;;-0.93;89.90;99051.31;6313441;20;2883911;-42
2021/12/28 02:51:53;;;;;;;;;82.00;62.67;;;;;-0.82;89.62;99050.16;6313834;20;3631495;-42
2021/12/28 02:54:22;;;;;;;;;85.33;63.33;;;;;-0.67;91.45;99057.69;6314482;20;2898238;-42
2021/12/28 02:56:52;;;;;;;;;94.33;68.00;;;;;-0.72;90.08;99052.53;6315114;20;3651335;-42
2021/12/28 02:59:22;;;;;;;;;95.00;68.00;;;;;-0.77;90.99;99056.19;6314100;20;3655584;-43
2021/12/28 03:01:51;;;;;;;;;88.00;67.33;;;;;-0.71;90.61;99049.00;6313960;20;3635666;-43
2021/12/28 03:04:24;;;;;;;;;90.00;65.00;;;;;-0.69;90.35;99052.44;6314027;20;3658060;-44
2021/12/28 03:06:55;;;;;;;;;91.67;67.00;;;;;-0.58;89.88;99053.94;6312650;20;3659608;-42
2021/12/28 03:09:23;;;;;;;;;67.50;51.50;;;;;-0.66;90.76;99051.50;6308635;20;2500309;-43
2021/12/28 03:11:53;;;;;;;;;89.67;67.00;;;;;-0.69;90.38;99049.81;6280410;20;3647168;-46
2021/12/28 03:14:23;;;;;;;;;89.33;64.67;;;;;-0.70;90.04;99042.81;6313789;20;3649212;-42
2021/12/28 03:16:52;;;;;;;;;78.50;62.00;;;;;-0.65;90.96;99053.25;6310572;20;2873204;-42
2021/12/28 03:19:22;;;;;;;;;81.33;61.00;;;;;-0.67;91.13;99053.28;6282293;20;2885851;-43
2021/12/28 03:21:52;;;;;;;;;88.00;64.67;;;;;-0.55;91.02;99046.81;6313014;20;3653403;-43
2021/12/28 03:24:21;;;;;;;;;79.67;61.33;;;;;-0.74;91.00;99050.84;6313527;20;3629463;-42
2021/12/28 03:26:51;;;;;;;;;80.00;60.00;;;;;-0.79;91.23;99053.59;6311881;20;3641931;-43
2021/12/28 03:29:22;;;;;;;;;83.33;59.00;;;;;-0.82;91.47;99058.94;6314105;20;3626438;-43
2021/12/28 03:31:51;;;;;;;;;77.67;60.67;;;;;-0.80;92.07;99056.28;6312432;20;2885815;-42
2021/12/28 03:34:20;;;;;;;;;83.00;63.00;;;;;-0.77;91.97;99057.03;6312124;20;2876290;-43
2021/12/28 03:36:49;;;;;;;;;75.50;58.00;;;;;-0.71;92.06;99050.75;6280767;20;2886887;-42
2021/12/28 03:39:19;;;;;;;;;81.67;60.67;;;;;-0.76;91.91;99050.88;6280630;20;3650224;-43
2021/12/28 03:41:49;;;;;;;;;85.67;63.00;;;;;-0.60;91.98;99054.00;6312978;20;3649749;-43
2021/12/28 03:44:19;;;;;;;;;84.00;60.67;;;;;-0.59;92.09;99054.84;6311219;20;2892162;-43
2021/12/28 03:46:48;;;;;;;;;83.33;61.00;;;;;-0.73;92.84;99050.81;6312571;20;3656499;-43
2021/12/28 03:49:18;;;;;;;;;83.00;62.00;;;;;-0.70;93.62;99048.09;6309387;20;3652417;-42
2021/12/28 03:51:48;;;;;;;;;82.67;60.33;;;;;-0.55;93.74;99053.88;6310320;20;3645122;-43
2021/12/28 03:54:18;;;;;;;;;82.67;62.67;;;;;-0.73;94.34;99052.59;6312217;20;3643028;-43
2021/12/28 03:56:47;;;;;;;;;79.50;60.50;;;;;-0.65;94.83;99050.59;6312713;20;2875284;-45
2021/12/28 03:59:16;;;;;;;;;76.00;61.00;;;;;-0.78;95.39;99050.06;6281950;20;2887801;-42
2021/12/28 04:01:45;;;;;;;;;74.50;54.50;;;;;-0.69;95.64;99044.53;6279328;20;2884771;-43
2021/12/28 04:04:14;;;;;;;;;79.00;59.00;;;;;-0.71;96.48;99042.84;6279548;20;2887796;-44
2021/12/28 04:06:44;;;;;;;;;80.67;61.67;;;;;-0.81;96.47;99044.88;6280102;20;2896301;-42
2021/12/28 04:09:20;;;;;;;;;75.33;59.00;;;;;-1.00;97.64;99043.59;6312773;20;2874490;-43
2021/12/28 04:11:50;;;;;;;;;77.00;59.00;;;;;-0.92;97.94;99042.50;6308300;20;2876385;-42
2021/12/28 04:14:20;;;;;;;;;85.00;61.00;;;;;-0.91;98.27;99043.38;6310279;20;2893157;-42
2021/12/28 04:16:49;;;;;;;;;82.33;60.67;;;;;-0.92;98.00;99049.56;6308308;20;2893081;-42
2021/12/28 04:19:19;;;;;;;;;87.33;62.33;;;;;-0.94;97.51;99043.47;6311177;20;3670035;-42
2021/12/28 04:21:49;;;;;;;;;77.67;57.33;;;;;-0.82;97.23;99040.47;6312273;20;2877449;-42
2021/12/28 04:24:18;;;;;;;;;76.00;59.00;;;;;-0.78;96.81;99039.50;6311754;20;2887774;-42
2021/12/28 04:26:47;;;;;;;;;77.67;58.67;;;;;-0.59;96.42;99052.22;6279323;20;3631887;-42
2021/12/28 04:29:17;;;;;;;;;78.00;60.33;;;;;-0.71;96.04;99054.28;6311561;20;3633673;-42
2021/12/28 04:31:47;;;;;;;;;82.00;63.33;;;;;-0.76;96.56;99048.25;6310460;20;2884713;-42
2021/12/28 04:34:17;;;;;;;;;75.33;56.00;;;;;-0.62;95.68;99052.28;6308519;20;2885756;-43
2021/12/28 04:36:47;;;;;;;;;78.67;60.00;;;;;-0.65;95.61;99057.66;6311915;20;2884933;-41
2021/12/28 04:39:18;;;;;;;;;80.33;62.67;;;;;-0.78;95.66;99055.31;6310132;20;3644017;-47
2021/12/28 04:41:47;;;;;;;;;80.50;60.00;;;;;-0.66;95.59;99056.75;6308498;20;2865965;-43
2021/12/28 04:44:23;;;;;;;;;79.33;61.00;;;;;-0.74;96.16;99050.84;6279136;20;2893562;-42
2021/12/28 04:46:54;;;;;;;;;84.67;59.33;;;;;-0.62;95.55;99060.19;6310832;20;3657513;-46
2021/12/28 04:49:26;;;;;;;;;73.00;59.50;;;;;-0.70;95.59;99053.34;6309908;20;2856753;-45
2021/12/28 04:51:57;;;;;;;;;85.00;63.67;;;;;-0.65;95.70;99041.84;6281257;20;2904464;-43
2021/12/28 04:54:26;;;;;;;;;87.33;63.33;;;;;-0.80;95.69;99051.84;6307000;20;3639886;-45
2021/12/28 04:56:56;;;;;;;;;82.33;60.00;;;;;-0.62;95.05;99055.78;6311651;20;2895085;-43
2021/12/28 04:59:26;;;;;;;;;84.00;58.67;;;;;-0.71;95.04;99056.91;6308394;20;3660645;-43
2021/12/28 05:01:55;;;;;;;;;81.33;61.00;;;;;-0.59;95.51;99054.84;6315925;20;2882672;-44
2021/12/28 05:04:25;;;;;;;;;79.00;58.00;;;;;-0.61;94.92;99060.16;6316174;20;2892087;-43
2021/12/28 05:06:56;;;;;;;;;82.50;60.00;;;;;-0.72;94.34;99060.44;6315774;20;2878487;-42
2021/12/28 05:09:25;;;;;;;;;80.00;60.67;;;;;-0.62;94.64;99055.78;6283755;20;2882562;-44
2021/12/28 05:11:55;;;;;;;;;87.00;61.33;;;;;-0.67;94.56;99049.78;6314499;20;3656498;-41
2021/12/28 05:14:25;;;;;;;;;81.33;62.33;;;;;-0.69;94.36;99044.53;6314504;20;3632534;-43
2021/12/28 05:16:54;;;;;;;;;65.00;49.00;;;;;-0.75;94.62;99044.69;6313229;20;2859690;-42
2021/12/28 05:19:23;;;;;;;;;78.33;59.33;;;;;-0.65;94.03;99044.47;6285289;20;2878595;-44
2021/12/28 05:21:52;;;;;;;;;67.00;52.50;;;;;-0.56;94.16;99050.34;6309150;20;2872263;-43
2021/12/28 05:24:22;;;;;;;;;82.33;59.67;;;;;-0.75;94.17;99038.56;6282307;20;3645036;-42
2021/12/28 05:26:52;;;;;;;;;69.00;55.50;;;;;-0.50;94.14;99049.31;6313154;20;2862776;-42
2021/12/28 05:29:22;;;;;;;;;80.67;61.00;;;;;-0.60;94.03;99056.63;6283206;20;2884060;-44
2021/12/28 05:31:52;;;;;;;;;78.33;60.67;;;;;-0.65;94.05;99055.88;6316293;20;3628401;-42
2021/12/28 05:34:22;;;;;;;;;86.33;65.33;;;;;-0.43;94.04;99065.84;6314314;20;3659592;-43
2021/12/28 05:36:51;;;;;;;;;82.00;64.00;;;;;-0.46;94.29;99056.25;6318992;20;3636680;-42
2021/12/28 05:39:21;;;;;;;;;90.67;62.33;;;;;-0.49;94.22;99067.75;6315692;20;3659769;-43
2021/12/28 05:41:51;;;;;;;;;83.33;62.67;;;;;-0.49;94.31;99062.47;6315953;20;3629407;-43
2021/12/28 05:44:20;;;;;;;;;72.00;58.50;;;;;-0.65;94.96;99065.56;6315615;20;2873301;-43
2021/12/28 05:46:50;;;;;;;;;82.33;62.33;;;;;-0.64;95.65;99064.66;6283082;20;3634580;-42
2021/12/28 05:49:19;;;;;;;;;78.50;58.00;;;;;-0.63;95.95;99063.72;6315469;20;2887838;-43
2021/12/28 05:51:49;;;;;;;;;76.50;60.00;;;;;-0.65;96.24;99068.19;6283191;20;2877459;-44
2021/12/28 05:54:19;;;;;;;;;69.50;56.50;;;;;-0.64;97.20;99059.38;6283064;20;2860709;-42
2021/12/28 05:56:49;;;;;;;;;79.50;59.50;;;;;-0.54;97.10;99058.22;6283263;20;2886703;-42
2021/12/28 05:59:18;;;;;;;;;200.00;157.00;;;;;-0.62;98.43;99058.44;6284312;20;4491971;-41
2021/12/28 06:01:49;;;;;;;;;75.67;57.00;;;;;-0.61;98.39;99046.09;6282501;20;3637724;-42
2021/12/28 06:04:19;;;;;;;;;78.00;59.00;;;;;-0.61;99.08;99046.97;6315296;20;2880563;-43
2021/12/28 06:06:48;;;;;;;;;77.00;55.67;;;;;-0.64;99.14;99051.47;6281601;20;2888825;-42
2021/12/28 06:09:17;;;;;;;;;71.50;58.00;;;;;-0.61;98.76;99054.00;6315819;20;2861732;-44
2021/12/28 06:11:46;;;;;;;;;70.00;56.00;;;;;-0.58;99.00;99061.84;6279116;20;2856574;-42
2021/12/28 06:14:16;;;;;;;;;74.00;59.50;;;;;-0.60;98.30;99064.53;6282615;20;2861733;-43
2021/12/28 06:16:44;;;;;;;;;70.50;55.50;;;;;-0.62;98.57;99065.47;6280186;20;2497157;-41
2021/12/28 06:19:12;;;;;;;;;72.00;57.00;;;;;-0.61;98.13;99059.28;6281197;20;2500257;-42
2021/12/28 06:21:41;;;;;;;;;64.50;55.50;;;;;-0.43;97.55;99061.44;6281282;20;2861711;-43
2021/12/28 06:24:11;;;;;;;;;76.33;56.67;;;;;-0.46;97.97;99058.88;6282933;20;3647211;-42
2021/12/28 06:26:40;;;;;;;;;67.00;54.00;;;;;-0.55;98.10;99067.06;6313038;20;2892055;-43
2021/12/28 06:29:09;;;;;;;;;72.00;54.50;;;;;-0.48;98.24;99068.59;6283784;20;2868996;-43
2021/12/28 06:31:38;;;;;;;;;82.33;58.67;;;;;-0.52;98.80;99072.25;6280738;20;3638820;-42
2021/12/28 06:34:07;;;;;;;;;64.00;47.00;;;;;-0.51;98.72;99074.81;6310713;20;2847190;-42
2021/12/28 06:36:37;;;;;;;;;79.67;59.33;;;;;-0.57;99.30;99084.69;6283259;20;3639839;-42
2021/12/28 06:39:07;;;;;;;;;78.67;60.00;;;;;-0.51;99.03;99084.50;6316191;20;3626304;-42
2021/12/28 06:41:38;;;;;;;;;77.33;56.67;;;;;-0.44;99.45;99088.72;6312978;20;3632636;-41
2021/12/28 06:44:10;;;;;;;;;73.33;58.67;;;;;-0.41;99.39;99091.28;6313257;20;3621145;-42
2021/12/28 06:46:39;;;;;;;;;88.33;65.33;;;;;-0.37;98.99;99094.69;6314814;20;3650252;-44
2021/12/28 06:49:09;;;;;;;;;88.00;61.67;;;;;-0.49;99.13;99099.38;6312222;20;3664809;-42
2021/12/28 06:51:39;;;;;;;;;77.67;58.67;;;;;-0.47;99.18;99102.00;6311794;20;3631544;-43
2021/12/28 06:54:09;;;;;;;;;81.00;58.00;;;;;-0.38;99.73;99107.00;6313257;20;2885934;-42
2021/12/28 06:56:39;;;;;;;;;79.33;58.33;;;;;-0.36;99.22;99114.88;6314848;20;3644040;-43
2021/12/28 06:59:09;;;;;;;;;74.33;55.00;;;;;-0.51;99.44;99110.88;6312970;20;3628402;-42
2021/12/28 07:01:39;;;;;;;;;72.33;56.00;;;;;-0.40;99.97;99107.94;6311646;20;2865875;-41
2021/12/28 07:04:08;;;;;;;;;79.33;58.00;;;;;-0.49;99.67;99120.47;6312522;20;3646149;-43
2021/12/28 07:06:37;;;;;;;;;71.00;52.00;;;;;-0.55;99.73;99122.41;6314096;20;2857809;-42
2021/12/28 07:09:07;;;;;;;;;83.33;60.67;;;;;-0.37;99.69;99123.69;6283633;20;3648174;-43
2021/12/28 07:11:35;;;;;;;;;76.00;56.50;;;;;-0.39;99.56;99123.75;6311664;20;2890944;-41
2021/12/28 07:14:05;;;;;;;;;71.67;55.33;;;;;-0.42;99.82;99117.66;6281270;20;2880574;-43
2021/12/28 07:16:35;;;;;;;;;82.00;61.33;;;;;-0.38;99.69;99122.81;6309652;20;2881567;-44
2021/12/28 07:19:03;;;;;;;;;74.50;58.50;;;;;-0.33;99.66;99114.81;6310468;20;2500391;-43
2021/12/28 07:21:32;;;;;;;;;83.33;59.00;;;;;-0.29;100.00;99121.72;6280487;20;3655423;-42
2021/12/28 07:24:04;;;;;;;;;81.67;60.67;;;;;-0.45;100.00;99115.97;6314123;20;2883700;-42
2021/12/28 07:26:34;;;;;;;;;79.00;60.50;;;;;-0.37;100.00;99114.03;6311800;20;2885684;-44
2021/12/28 07:29:05;;;;;;;;;79.67;58.33;;;;;-0.40;100.00;99119.34;6281212;20;2885681;-43
2021/12/28 07:31:35;;;;;;;;;85.33;62.67;;;;;-0.37;100.00;99124.59;6310878;20;3656487;-42
2021/12/28 07:34:04;;;;;;;;;84.67;61.00;;;;;-0.38;100.00;99122.81;6311924;20;3666879;-42
2021/12/28 07:36:34;;;;;;;;;88.33;66.00;;;;;-0.47;100.00;99129.22;6313492;20;3655419;-42
2021/12/28 07:39:05;;;;;;;;;82.33;60.33;;;;;-0.31;100.00;99124.41;6313444;20;3642936;-41
2021/12/28 07:41:34;;;;;;;;;79.00;60.00;;;;;-0.25;100.00;99132.16;6310008;20;2869375;-43
2021/12/28 07:44:05;;;;;;;;;68.33;50.67;;;;;-0.26;100.00;99129.56;6279708;20;2883605;-42
2021/12/28 07:46:34;;;;;;;;;74.67;54.33;;;;;-0.38;100.00;99128.09;6312716;20;2890938;-42
2021/12/28 07:49:04;;;;;;;;;95.00;71.67;;;;;-0.34;100.00;99134.16;6311710;20;3668485;-41
2021/12/28 07:51:34;;;;;;;;;85.33;65.00;;;;;-0.28;100.00;99141.94;6311132;20;2887724;-42
2021/12/28 07:54:03;;;;;;;;;78.67;61.00;;;;;-0.23;100.00;99140.03;6312279;20;2879564;-41
2021/12/28 07:56:33;;;;;;;;;75.00;58.00;;;;;-0.26;100.00;99143.63;6313075;20;2883934;-42
2021/12/28 07:59:03;;;;;;;;;83.67;62.33;;;;;-0.33;100.00;99139.41;6311551;20;2890518;-42
2021/12/28 08:01:34;;;;;;;;;86.67;65.33;;;;;-0.36;100.00;99136.84;6311672;20;3673135;-43
2021/12/28 08:04:05;;;;;;;;;91.67;70.00;;;;;-0.24;100.00;99128.63;6312238;20;3638820;-42
2021/12/28 08:06:34;;;;;;;;;98.67;72.67;;;;;-0.45;100.00;99116.88;6311418;20;3674220;-45
2021/12/28 08:09:04;;;;;;;;;93.00;68.00;;;;;-0.24;100.00;99120.72;6279774;20;3652451;-44
2021/12/28 08:11:35;;;;;;;;;115.00;92.00;;;;;-0.01;100.00;99121.84;6309641;20;3704374;-44
2021/12/28 08:14:05;;;;;;;;;103.67;83.67;;;;;-0.32;100.00;99125.28;6280389;20;3665842;-43
2021/12/28 08:16:34;;;;;;;;;105.67;76.67;;;;;-0.33;100.00;99126.22;6307961;20;3683567;-42
2021/12/28 08:19:06;;;;;;;;;100.67;76.00;;;;;-0.01;100.00;99117.41;6279246;20;3665827;-42
2021/12/28 08:21:46;;;;;;;;;98.67;74.33;;;;;0.03;100.00;99126.13;6275853;20;3645123;-42
2021/12/28 08:24:16;;;;;;;;;90.00;71.00;;;;;0.14;100.00;99121.41;6311207;20;3633577;-42
2021/12/28 08:26:46;;;;;;;;;108.67;84.00;;;;;0.12;100.00;99112.66;6310494;20;3686672;-44
2021/12/28 08:29:15;;;;;;;;;125.00;106.00;;;;;0.03;100.00;99122.59;6281602;20;4472062;-42
2021/12/28 08:31:47;;;;;;;;;373.50;269.00;;;;;-0.20;100.00;99126.75;6274440;20;3723336;-44
2021/12/28 08:34:17;;;;;;;;;100.33;75.00;;;;;0.13;100.00;99124.97;6309226;20;3656588;-43
2021/12/28 08:36:44;;;;;;;;;92.00;63.00;;;;;0.05;100.00;99119.00;6279099;20;2552365;-43
2021/12/28 08:39:15;;;;;;;;;140.75;112.00;;;;;0.06;100.00;99120.75;6285147;20;4499220;-46
2021/12/28 08:41:46;;;;;;;;;113.67;92.00;;;;;-0.14;100.00;99131.00;6284497;20;3680459;-43
2021/12/28 08:44:16;;;;;;;;;126.67;99.33;;;;;-0.05;100.00;99136.91;6283589;20;3702296;-44
2021/12/28 08:46:45;;;;;;;;;89.67;65.33;;;;;0.16;100.00;99138.06;6286137;20;3661694;-43
2021/12/28 08:49:16;;;;;;;;;125.67;97.00;;;;;-0.15;100.00;99138.06;6283689;20;3698221;-43
2021/12/28 08:51:47;;;;;;;;;83.33;63.00;;;;;0.25;100.00;99144.84;6282495;20;3655597;-43
2021/12/28 08:54:15;;;;;;;;;136.00;103.50;;;;;0.10;100.00;99146.16;6309596;20;1951365;-43
2021/12/28 08:56:46;;;;;;;;;199.75;165.50;;;;;0.06;100.00;99144.50;6282644;20;4474193;-42
2021/12/28 08:59:15;;;;;;;;;79.00;59.50;;;;;0.10;100.00;99148.78;6280424;20;2500454;-42
2021/12/28 09:01:48;;;;;;;;;110.33;88.67;;;;;0.04;100.00;99142.81;6281677;20;3684749;-42
2021/12/28 09:04:19;;;;;;;;;155.00;126.00;;;;;0.01;100.00;99145.56;6284684;20;4497515;-43
2021/12/28 09:06:50;;;;;;;;;187.75;140.00;;;;;0.04;100.00;99146.31;6283393;20;4476260;-43
2021/12/28 09:09:19;;;;;;;;;90.67;67.67;;;;;0.18;100.00;99138.00;6310727;20;3666939;-42
2021/12/28 09:11:50;;;;;;;;;80.33;55.67;;;;;0.20;100.00;99141.47;6317373;20;3637719;-43
2021/12/28 09:14:19;;;;;;;;;81.67;59.67;;;;;0.26;100.00;99145.72;6315230;20;3648249;-43
2021/12/28 09:16:49;;;;;;;;;114.67;92.00;;;;;0.11;100.00;99147.91;6310495;20;3700242;-45
2021/12/28 09:19:19;;;;;;;;;103.33;75.00;;;;;0.22;100.00;99142.31;6284473;20;3684661;-42
2021/12/28 09:21:50;;;;;;;;;149.00;114.75;;;;;0.21;100.00;99133.53;6283960;20;4500277;-42
2021/12/28 09:24:20;;;;;;;;;86.00;63.67;;;;;0.22;100.00;99134.38;6312573;20;3655429;-43
2021/12/28 09:27:08;;;;;;;;;148.25;111.00;;;;;0.30;100.00;99129.75;6282403;20;3721176;-43
2021/12/28 09:29:42;;;;;;;;;81.67;56.67;;;;;0.14;100.00;99131.97;6280761;20;3654038;-42
2021/12/28 09:32:20;;;;;;;;;147.25;109.50;;;;;0.27;100.00;99134.28;6316207;20;4496092;-42
2021/12/28 09:34:54;;;;;;;;;128.00;90.25;;;;;0.26;100.00;99130.75;6315502;20;3683643;-42
2021/12/28 09:37:24;;;;;;;;;79.33;57.33;;;;;0.11;100.00;99128.56;6311568;20;3635637;-45
2021/12/28 09:39:57;;;;;;;;;101.00;71.00;;;;;0.02;100.00;99132.28;6314634;20;3664791;-42
2021/12/28 09:42:27;;;;;;;;;172.00;131.33;;;;;0.21;100.00;99130.00;6282521;20;3688820;-42
2021/12/28 09:44:57;;;;;;;;;99.00;67.33;;;;;0.11;100.00;99136.47;6283987;20;3655484;-43
2021/12/28 09:47:27;;;;;;;;;70.50;54.50;;;;;0.24;100.00;99131.69;6314324;20;2862750;-43
2021/12/28 09:49:58;;;;;;;;;144.25;108.25;;;;;0.22;100.00;99124.69;6283071;20;4492022;-43
2021/12/28 09:52:27;;;;;;;;;90.00;65.50;;;;;0.08;100.00;99121.59;6315061;20;2698234;-42
2021/12/28 09:54:57;;;;;;;;;107.67;84.67;;;;;0.08;100.00;99124.22;6313847;20;3679425;-43
2021/12/28 09:57:28;;;;;;;;;77.33;59.00;;;;;0.24;100.00;99124.66;6284294;20;3636688;-43
2021/12/28 09:59:58;;;;;;;;;98.00;71.33;;;;;0.20;100.00;99121.22;6313492;20;3663781;-43
2021/12/28 10:02:28;;;;;;;;;110.67;83.33;;;;;0.06;100.00;99115.47;6316092;20;3697142;-43
2021/12/28 10:05:09;;;;;;;;;85.67;62.33;;;;;0.12;100.00;99111.81;6280842;20;3663786;-43
2021/12/28 10:07:48;;;;;;;;;101.33;74.67;;;;;0.11;100.00;99121.50;6279066;20;3665897;-42
2021/12/28 10:10:19;;;;;;;;;150.00;114.50;;;;;-0.03;100.00;99118.38;6279877;20;4487711;-43
2021/12/28 10:13:00;;;;;;;;;99.00;70.67;;;;;-0.04;100.00;99117.50;6283463;20;3660698;-43
2021/12/28 10:15:38;;;;;;;;;119.33;98.00;;;;;-0.23;100.00;99121.56;6315515;20;3701300;-42
2021/12/28 10:18:12;;;;;;;;;87.67;61.67;;;;;-0.25;100.00;99126.88;6282494;20;3648398;-45
2021/12/28 10:20:48;;;;;;;;;102.33;75.00;;;;;-0.21;100.00;99125.03;6311911;20;3670042;-42
2021/12/28 10:23:34;;;;;;;;;112.50;87.00;;;;;0.02;100.00;99121.75;6279281;20;1952394;-43
2021/12/28 10:26:07;;;;;;;;;127.50;98.50;;;;;0.10;100.00;99117.09;6282507;20;3704375;-46
2021/12/28 10:28:39;;;;;;;;;86.00;67.00;;;;;0.10;100.00;99127.66;6279674;20;3623723;-43
2021/12/28 10:31:19;;;;;;;;;96.00;70.67;;;;;-0.03;100.00;99126.28;6310891;20;3653384;-43
2021/12/28 10:33:56;;;;;;;;;95.00;69.00;;;;;-0.01;100.00;99113.91;6313742;20;3642978;-43
2021/12/28 10:36:34;;;;;;;;;95.33;66.33;;;;;-0.12;100.00;99113.34;6311637;20;3657520;-43
2021/12/28 10:39:06;;;;;;;;;84.00;60.00;;;;;-0.07;100.00;99107.03;6314939;20;3657525;-44
2021/12/28 10:41:42;;;;;;;;;96.67;67.33;;;;;-0.14;100.00;99099.34;6311048;20;3654809;-41
2021/12/28 10:44:12;;;;;;;;;74.33;48.33;;;;;0.03;100.00;99102.38;6314652;20;3637095;-44
2021/12/28 10:46:42;;;;;;;;;104.00;73.67;;;;;0.00;100.00;99094.56;6309992;20;3675260;-43
2021/12/28 10:49:12;;;;;;;;;131.25;99.00;;;;;0.05;100.00;99095.25;6278778;20;4482488;-43
2021/12/28 10:51:44;;;;;;;;;109.33;76.33;;;;;-0.03;100.00;99086.69;6310682;20;3682499;-45
2021/12/28 10:54:17;;;;;;;;;112.00;82.00;;;;;-0.28;100.00;99084.75;6282262;20;3702428;-44
2021/12/28 10:56:57;;;;;;;;;77.50;56.50;;;;;-0.17;100.00;99086.25;6275648;20;2500474;-44
2021/12/28 10:59:33;;;;;;;;;61.00;47.50;;;;;-0.05;100.00;99085.91;6280812;20;2857565;-44
2021/12/28 11:02:04;;;;;;;;;98.33;64.67;;;;;-0.02;100.00;99083.16;6281027;20;3667907;-45
2021/12/28 11:04:37;;;;;;;;;98.00;67.33;;;;;-0.17;100.00;99073.03;6280634;20;3672118;-44
2021/12/28 11:07:08;;;;;;;;;76.00;58.00;;;;;-0.10;100.00;99062.28;6279495;20;2866947;-45
2021/12/28 11:09:47;;;;;;;;;46.00;37.00;;;;;-0.07;100.00;99064.81;6279824;20;2495125;-44
2021/12/28 11:12:18;;;;;;;;;48.00;44.00;;;;;-0.02;100.00;99072.63;6282002;20;2869114;-44
2021/12/28 11:14:47;;;;;;;;;69.33;46.67;;;;;0.04;100.00;99067.16;6310421;20;2874270;-44
2021/12/28 11:17:16;;;;;;;;;54.00;41.00;;;;;0.07;100.00;99061.78;6307646;20;2871203;-44